createdAt,value
2024-04-11T06:59:43.998Z,101586.88
2024-04-11T07:02:12.043Z,101589.69
2024-04-11T07:04:39.555Z,101585.72
2024-04-11T07:07:09.746Z,101585.97
2024-04-11T07:09:40.699Z,101589.97
2024-04-11T07:12:29.557Z,101589.59
2024-04-11T07:14:57.684Z,101586.13
2024-04-11T07:17:28.732Z,101585.91
2024-04-11T07:19:59.716Z,101590.72
2024-04-11T07:22:29.405Z,101586.25
2024-04-11T07:24:57.123Z,101596.47
2024-04-11T07:27:25.162Z,101600.41
2024-04-11T07:29:53.711Z,101596.53
2024-04-11T07:32:22.574Z,101600.63
2024-04-11T07:34:51.091Z,101612.38
2024-04-11T07:37:18.983Z,101613.06
2024-04-11T07:39:47.009Z,101604.69
2024-04-11T07:42:37.950Z,101613.25
2024-04-11T07:45:06.605Z,101616.19
2024-04-11T07:47:47.240Z,101615.13
2024-04-11T07:50:25.439Z,101619.78
2024-04-11T07:52:53.842Z,101618.53
2024-04-11T07:55:24.396Z,101624.53
2024-04-11T07:57:53.109Z,101627.47
2024-04-11T08:00:28.661Z,101616.28
2024-04-11T08:02:57.807Z,101615.09
2024-04-11T08:05:26.506Z,101623.00
2024-04-11T08:07:54.479Z,101617.16
2024-04-11T08:10:21.966Z,101623.41
2024-04-11T08:12:49.889Z,101616.47
2024-04-11T08:15:17.408Z,101616.63
2024-04-11T08:17:45.327Z,101625.75
2024-04-11T08:20:16.078Z,101626.84
2024-04-11T08:22:44.168Z,101627.06
2024-04-11T08:25:13.475Z,101631.91
2024-04-11T08:27:43.530Z,101638.31
2024-04-11T08:30:12.841Z,101638.19
2024-04-11T08:32:42.658Z,101643.53
2024-04-11T08:35:10.158Z,101643.34
2024-04-11T08:37:39.241Z,101645.25
2024-04-11T08:40:11.720Z,101638.41
2024-04-11T08:42:40.230Z,101642.16
2024-04-11T08:45:08.047Z,101649.84
2024-04-11T08:47:36.814Z,101647.19
2024-04-11T08:50:07.455Z,101646.53
2024-04-11T08:52:38.024Z,101640.16
2024-04-11T08:55:07.384Z,101649.03
2024-04-11T08:57:35.249Z,101646.78
2024-04-11T09:00:10.516Z,101649.91
2024-04-11T09:02:38.823Z,101654.38
2024-04-11T09:07:48.606Z,101664.19
2024-04-11T09:10:20.686Z,101666.66
2024-04-11T09:12:49.535Z,101657.78
2024-04-11T09:15:17.226Z,101657.38
2024-04-11T09:17:46.441Z,101659.06
2024-04-11T09:20:16.549Z,101662.78
2024-04-11T09:22:55.626Z,101658.63
2024-04-11T09:25:27.774Z,101660.22
2024-04-11T09:28:02.552Z,101651.00
2024-04-11T09:30:34.034Z,101651.34
2024-04-11T09:33:06.866Z,101654.19
2024-04-11T09:35:48.337Z,101648.41
2024-04-11T09:38:20.767Z,101649.19
2024-04-11T09:40:51.886Z,101647.44
2024-04-11T09:43:28.746Z,101641.41
2024-04-11T09:46:05.678Z,101651.94
2024-04-11T09:48:43.228Z,101641.28
2024-04-11T09:51:16.608Z,101636.78
2024-04-11T09:53:44.645Z,101641.75
2024-04-11T09:56:17.426Z,101629.69
2024-04-11T09:58:49.454Z,101633.03
2024-04-11T10:01:32.752Z,101639.34
2024-04-11T10:04:15.101Z,101627.22
2024-04-11T10:06:45.498Z,101628.97
2024-04-11T10:09:19.104Z,101636.03
2024-04-11T10:11:53.096Z,101639.78
2024-04-11T10:14:24.390Z,101640.09
2024-04-11T10:16:57.225Z,101632.00
2024-04-11T10:19:29.433Z,101631.34
2024-04-11T10:22:07.964Z,101636.84
2024-04-11T10:24:41.701Z,101634.63
2024-04-11T10:27:19.975Z,101623.88
2024-04-11T10:29:49.899Z,101620.03
2024-04-11T10:32:24.527Z,101613.78
2024-04-11T10:35:00.630Z,101618.00
2024-04-11T10:37:34.776Z,101616.47
2024-04-11T10:40:03.381Z,101620.03
2024-04-11T10:42:39.605Z,101621.97
2024-04-11T10:45:12.524Z,101613.44
2024-04-11T10:47:41.124Z,101611.22
2024-04-11T10:50:16.210Z,101609.75
2024-04-11T10:52:47.844Z,101604.47
2024-04-11T10:55:37.916Z,101597.50
2024-04-11T10:58:24.018Z,101593.81
2024-04-11T11:01:02.376Z,101598.50
2024-04-11T11:03:45.870Z,101599.47
2024-04-11T11:06:33.952Z,101596.59
2024-04-11T11:09:12.944Z,101594.34
2024-04-11T11:11:48.230Z,101591.13
2024-04-11T11:14:19.418Z,101588.41
2024-04-11T11:16:52.437Z,101582.25
2024-04-11T11:19:20.290Z,101577.53
2024-04-11T11:21:52.864Z,101584.75
2024-04-11T11:24:26.161Z,101587.06
2024-04-11T11:27:01.757Z,101570.41
2024-04-11T11:29:31.224Z,101587.44
2024-04-11T11:32:03.477Z,101588.72
2024-04-11T11:34:32.799Z,101579.44
2024-04-11T11:37:04.451Z,101581.53
2024-04-11T11:39:37.893Z,101578.34
2024-04-11T11:42:23.882Z,101576.19
2024-04-11T11:45:01.981Z,101580.09
2024-04-11T11:47:35.783Z,101570.78
2024-04-11T11:50:20.859Z,101567.09
2024-04-11T11:52:54.464Z,101565.53
2024-04-11T11:55:27.792Z,101566.25
2024-04-11T11:58:00.269Z,101563.41
2024-04-11T12:00:34.541Z,101565.94
2024-04-11T12:03:21.232Z,101561.47
2024-04-11T12:05:57.868Z,101563.69
2024-04-11T12:08:26.017Z,101555.94
2024-04-11T12:11:14.091Z,101548.22
2024-04-11T12:13:52.565Z,101550.59
2024-04-11T12:16:22.832Z,101537.75
2024-04-11T12:18:54.138Z,101537.06
2024-04-11T12:21:28.686Z,101543.16
2024-04-11T12:23:58.190Z,101540.91
2024-04-11T12:26:28.338Z,101539.94
2024-04-11T12:28:57.860Z,101530.75
2024-04-11T12:31:27.705Z,101535.19
2024-04-11T12:33:58.540Z,101531.69
2024-04-11T12:36:58.583Z,101536.97
2024-04-11T12:39:42.760Z,101532.66
2024-04-11T12:42:12.612Z,101532.81
2024-04-11T12:44:40.664Z,101530.28
2024-04-11T12:47:15.928Z,101524.69
2024-04-11T12:49:59.647Z,101526.91
2024-04-11T12:52:31.456Z,101525.66
2024-04-11T12:55:02.930Z,101519.47
2024-04-11T12:57:31.440Z,101519.63
2024-04-11T13:00:10.870Z,101517.00
2024-04-11T13:02:42.675Z,101509.44
2024-04-11T13:05:15.650Z,101514.00
2024-04-11T13:07:44.138Z,101523.00
2024-04-11T13:10:12.167Z,101521.09
2024-04-11T13:12:45.374Z,101515.22
2024-04-11T13:15:21.112Z,101515.78
2024-04-11T13:17:54.588Z,101511.59
2024-04-11T13:20:30.614Z,101510.81
2024-04-11T13:23:12.109Z,101510.69
2024-04-11T13:25:46.939Z,101515.22
2024-04-11T13:28:14.724Z,101517.28
2024-04-11T13:30:48.257Z,101506.41
2024-04-11T13:33:19.553Z,101510.25
2024-04-11T13:35:53.846Z,101503.03
2024-04-11T13:38:24.699Z,101502.09
2024-04-11T13:41:10.437Z,101511.59
2024-04-11T13:43:44.006Z,101508.94
2024-04-11T13:46:13.341Z,101495.66
2024-04-11T13:48:52.180Z,101494.28
2024-04-11T13:51:37.075Z,101503.41
2024-04-11T13:54:11.856Z,101498.13
2024-04-11T13:56:40.240Z,101491.00
2024-04-11T13:59:10.778Z,101503.09
2024-04-11T14:01:52.297Z,101497.88
2024-04-11T14:04:40.175Z,101491.16
2024-04-11T14:07:08.729Z,101494.97
2024-04-11T14:09:41.055Z,101498.78
2024-04-11T14:12:11.992Z,101491.72
2024-04-11T14:14:40.693Z,101497.97
2024-04-11T14:17:14.823Z,101488.44
2024-04-11T14:20:15.526Z,101483.19
2024-04-11T14:22:49.920Z,101493.88
2024-04-11T14:25:22.039Z,101491.31
2024-04-11T14:27:50.154Z,101487.22
2024-04-11T14:30:27.431Z,101485.13
2024-04-11T14:33:10.929Z,101491.28
2024-04-11T14:35:57.430Z,101490.81
2024-04-11T14:38:34.135Z,101495.41
2024-04-11T14:41:06.458Z,101489.44
2024-04-11T14:43:41.205Z,101491.06
2024-04-11T14:46:13.782Z,101490.56
2024-04-11T14:48:41.788Z,101497.91
2024-04-11T14:51:18.180Z,101494.56
2024-04-11T14:53:48.402Z,101492.16
2024-04-11T14:56:19.791Z,101487.13
2024-04-11T14:58:55.276Z,101487.78
2024-04-11T15:01:32.271Z,101490.53
2024-04-11T15:04:06.622Z,101490.13
2024-04-11T15:06:35.567Z,101487.19
2024-04-11T15:09:30.418Z,101487.03
2024-04-11T15:12:05.056Z,101489.00
2024-04-11T15:14:35.146Z,101484.75
2024-04-11T15:17:21.127Z,101486.19
2024-04-11T15:19:53.073Z,101483.56
2024-04-11T15:22:24.844Z,101481.97
2024-04-11T15:24:54.132Z,101483.22
2024-04-11T15:27:21.791Z,101480.25
2024-04-11T15:29:58.896Z,101479.41
2024-04-11T15:32:39.657Z,101481.69
2024-04-11T15:35:11.639Z,101480.72
2024-04-11T15:38:06.924Z,101479.84
2024-04-11T15:40:34.764Z,101487.19
2024-04-11T15:43:05.398Z,101481.44
2024-04-11T15:45:54.622Z,101488.78
2024-04-11T15:48:23.032Z,101481.78
2024-04-11T15:50:51.175Z,101488.41
2024-04-11T15:53:18.681Z,101483.97
2024-04-11T15:55:49.758Z,101482.47
2024-04-11T15:58:26.415Z,101487.41
2024-04-11T16:00:55.214Z,101492.84
2024-04-11T16:03:24.352Z,101491.66
2024-04-11T16:05:54.880Z,101485.34
2024-04-11T16:08:25.647Z,101485.41
2024-04-11T16:10:56.132Z,101483.78
2024-04-11T16:13:29.134Z,101490.91
2024-04-11T16:15:58.149Z,101493.72
2024-04-11T16:18:28.827Z,101490.06
2024-04-11T16:21:01.681Z,101495.16
2024-04-11T16:23:35.904Z,101491.19
2024-04-11T16:26:15.950Z,101491.56
2024-04-11T16:28:43.446Z,101495.00
2024-04-11T16:31:26.859Z,101492.69
2024-04-11T16:33:59.161Z,101488.97
2024-04-11T16:36:31.900Z,101490.28
2024-04-11T16:39:19.434Z,101490.06
2024-04-11T16:41:51.744Z,101494.19
2024-04-11T16:44:25.451Z,101503.59
2024-04-11T16:46:57.255Z,101494.88
2024-04-11T16:49:37.362Z,101492.25
2024-04-11T16:52:09.748Z,101490.19
2024-04-11T16:54:44.870Z,101493.72
2024-04-11T16:57:15.705Z,101497.91
2024-04-11T16:59:44.308Z,101485.66
2024-04-11T17:02:13.016Z,101495.44
2024-04-11T17:04:47.061Z,101499.94
2024-04-11T17:07:26.151Z,101502.16
2024-04-11T17:09:59.272Z,101491.44
2024-04-11T17:12:33.760Z,101503.84
2024-04-11T17:15:02.679Z,101506.03
2024-04-11T17:17:38.204Z,101506.25
2024-04-11T17:20:21.600Z,101508.47
2024-04-11T17:23:02.851Z,101508.78
2024-04-11T17:25:34.828Z,101508.44
2024-04-11T17:28:35.420Z,101506.97
2024-04-11T17:31:06.075Z,101512.81
2024-04-11T17:33:37.520Z,101511.09
2024-04-11T17:36:25.315Z,101518.34
2024-04-11T17:39:02.324Z,101512.47
2024-04-11T17:41:39.108Z,101525.13
2024-04-11T17:44:13.386Z,101525.34
2024-04-11T17:47:04.364Z,101526.56
2024-04-11T17:49:40.967Z,101525.28
2024-04-11T17:52:25.465Z,101519.81
2024-04-11T17:55:06.750Z,101525.03
2024-04-11T17:57:34.471Z,101531.88
2024-04-11T18:00:05.336Z,101536.75
2024-04-11T18:02:36.077Z,101534.66
2024-04-11T18:05:09.871Z,101542.06
2024-04-11T18:07:39.065Z,101546.66
2024-04-11T18:10:10.614Z,101549.56
2024-04-11T18:12:40.817Z,101548.53
2024-04-11T18:15:10.974Z,101550.34
2024-04-11T18:17:38.508Z,101560.88
2024-04-11T18:20:12.187Z,101556.50
2024-04-11T18:22:43.100Z,101562.38
2024-04-11T18:25:11.162Z,101558.22
2024-04-11T18:27:41.736Z,101554.09
2024-04-11T18:30:24.154Z,101564.25
2024-04-11T18:32:53.995Z,101564.56
2024-04-11T18:35:24.481Z,101564.78
2024-04-11T18:37:55.515Z,101568.09
2024-04-11T18:40:26.731Z,101576.09
2024-04-11T18:43:17.193Z,101567.34
2024-04-11T18:45:52.012Z,101573.75
2024-04-11T18:48:38.879Z,101568.72
2024-04-11T18:51:08.092Z,101572.47
2024-04-11T18:53:36.694Z,101573.44
2024-04-11T18:56:08.445Z,101570.66
2024-04-11T18:58:44.451Z,101572.47
2024-04-11T19:01:19.084Z,101577.91
2024-04-11T19:03:46.751Z,101571.81
2024-04-11T19:06:17.958Z,101573.44
2024-04-11T19:08:49.603Z,101567.78
2024-04-11T19:11:22.022Z,101570.47
2024-04-11T19:13:56.445Z,101572.69
2024-04-11T19:16:26.611Z,101570.56
2024-04-11T19:18:58.197Z,101574.16
2024-04-11T19:21:27.077Z,101575.97
2024-04-11T19:24:29.963Z,101570.97
2024-04-11T19:26:58.968Z,101573.72
2024-04-11T19:29:38.829Z,101576.31
2024-04-11T19:32:06.997Z,101567.22
2024-04-11T19:34:34.473Z,101576.59
2024-04-11T19:37:06.335Z,101580.00
2024-04-11T19:39:43.973Z,101574.66
2024-04-11T19:42:19.368Z,101581.38
2024-04-11T19:44:50.445Z,101575.81
2024-04-11T19:47:27.746Z,101577.53
2024-04-11T19:50:07.342Z,101579.34
2024-04-11T19:52:35.376Z,101568.03
2024-04-11T19:55:10.321Z,101578.50
2024-04-11T19:57:49.845Z,101576.03
2024-04-11T20:00:34.802Z,101572.81
2024-04-11T20:03:30.661Z,101576.44
2024-04-11T20:06:09.126Z,101573.34
2024-04-11T20:08:38.823Z,101582.44
2024-04-11T20:11:20.020Z,101569.44
2024-04-11T20:13:48.517Z,101573.16
2024-04-11T20:16:22.517Z,101578.03
2024-04-11T20:18:54.934Z,101578.69
2024-04-11T20:21:25.729Z,101574.31
2024-04-11T20:23:58.536Z,101570.34
2024-04-11T20:26:31.845Z,101576.44
2024-04-11T20:29:06.774Z,101575.69
2024-04-11T20:31:35.291Z,101575.75
2024-04-11T20:34:09.388Z,101572.16
2024-04-11T20:36:38.992Z,101579.50
2024-04-11T20:39:11.625Z,101586.91
2024-04-11T20:42:03.403Z,101585.50
2024-04-11T20:44:41.717Z,101581.34
2024-04-11T20:47:13.523Z,101583.16
2024-04-11T20:49:44.431Z,101584.97
2024-04-11T20:52:32.117Z,101588.78
2024-04-11T20:55:19.269Z,101584.63
2024-04-11T20:58:05.479Z,101596.13
2024-04-11T21:00:51.920Z,101589.28
2024-04-11T21:03:38.126Z,101592.50
2024-04-11T21:06:25.467Z,101592.88
2024-04-11T21:09:11.745Z,101590.03
2024-04-11T21:11:58.753Z,101598.69
2024-04-11T21:14:44.942Z,101594.63
2024-04-11T21:17:31.675Z,101597.66
2024-04-11T21:20:17.962Z,101597.09
2024-04-11T21:23:04.722Z,101606.13
2024-04-11T21:25:50.674Z,101607.19
2024-04-11T21:28:37.535Z,101602.53
2024-04-11T21:31:23.704Z,101610.59
2024-04-11T21:33:51.755Z,101608.69
2024-04-11T21:36:26.004Z,101606.34
2024-04-11T21:38:54.057Z,101610.34
2024-04-11T21:41:37.285Z,101612.69
2024-04-11T21:44:05.909Z,101617.25
2024-04-11T21:46:39.799Z,101615.56
2024-04-11T21:49:09.798Z,101617.00
2024-04-11T21:51:42.528Z,101617.47
2024-04-11T21:54:10.883Z,101612.91
2024-04-11T21:56:43.175Z,101606.84
2024-04-11T21:59:16.026Z,101605.41
2024-04-11T22:01:55.445Z,101604.28
2024-04-11T22:04:41.996Z,101606.19
2024-04-11T22:07:12.576Z,101612.41
2024-04-11T22:09:44.836Z,101604.53
2024-04-11T22:12:13.418Z,101607.38
2024-04-11T22:14:46.999Z,101608.50
2024-04-11T22:17:21.872Z,101612.22
2024-04-11T22:20:14.413Z,101608.81
2024-04-11T22:22:58.992Z,101615.34
2024-04-11T22:25:28.560Z,101613.78
2024-04-11T22:28:02.601Z,101608.56
2024-04-11T22:30:34.380Z,101613.03
2024-04-11T22:33:03.369Z,101621.09
2024-04-11T22:35:31.608Z,101622.22
2024-04-11T22:37:59.387Z,101616.16
2024-04-11T22:40:27.365Z,101622.47
2024-04-11T22:42:54.971Z,101624.03
2024-04-11T22:45:30.698Z,101625.47
2024-04-11T22:47:58.650Z,101629.34
2024-04-11T22:50:26.902Z,101626.88
2024-04-11T22:52:54.472Z,101628.75
2024-04-11T22:55:26.039Z,101631.41
2024-04-11T22:57:59.365Z,101630.44
2024-04-11T23:00:31.606Z,101642.97
2024-04-11T23:03:02.472Z,101643.31
2024-04-11T23:05:35.612Z,101634.41
2024-04-11T23:08:06.974Z,101636.41
2024-04-11T23:10:41.407Z,101636.56
2024-04-11T23:13:10.717Z,101637.59
2024-04-11T23:15:59.087Z,101638.66
2024-04-11T23:18:39.359Z,101641.56
2024-04-11T23:21:10.757Z,101641.56
2024-04-11T23:23:42.792Z,101635.72
2024-04-11T23:26:16.298Z,101647.47
2024-04-11T23:28:49.296Z,101644.13
2024-04-11T23:31:18.361Z,101649.44
2024-04-11T23:33:58.078Z,101647.03
2024-04-11T23:36:29.923Z,101648.94
2024-04-11T23:39:01.262Z,101647.38
2024-04-11T23:41:35.800Z,101650.44
2024-04-11T23:44:04.708Z,101647.13
2024-04-11T23:46:34.240Z,101650.00
2024-04-11T23:49:09.347Z,101646.69
2024-04-11T23:51:51.007Z,101652.41
2024-04-11T23:54:21.447Z,101656.06
2024-04-11T23:57:01.720Z,101651.94
2024-04-11T23:59:39.763Z,101658.28
